Antonia, Louisiana
Current Conditions -  °F | °C
As of 11:53 AM on Thursday 29 Jan 2015 (Local Time) from KESF Reporting Station
Clear Clear  
Wind Chill: 71°   Ceiling: Unl
Heat Index: 71°   Visibility: 10mi
Dew Point: 55°   Wind: 15mph
Humidity: 57%   Direction: 260°W
Pressure: 30.22"   Gusts: NA
Location:  31.538°N, 92.3799°W
Report Text: KESF 291753Z AUTO 26013KT 10SM CLR 22/13 A3022 RMK AO2 SLP231 T02170128 10217 20133 58007
Loading
Personal Weather Stations






























Interactive Weather Map New forecast layout! Learn more

10-Day Weather Forecast

Advertisements
Track Severe Weather on mobile